Time;durP1;ratioP1;P1;durP2;ratioP2;P2;SDS_P1;SDS_P2;PMS_P1;PMS_P2;Temp;Humidity;BMP_temperature;BMP_pressure;BME280_temperature;BME280_humidity;BME280_pressure;Samples;Min_cycle;Max_cycle;Signal;HPM_P1;HPM_P2
2021/09/08 00:00:30;;;;;;;9.18;7.47;;;21.50;73.00;;;;;;5083150;28;20129;-61
2021/09/08 00:02:56;;;;;;;10.20;8.23;;;21.50;73.00;;;;;;5068604;28;20229;-61
2021/09/08 00:05:21;;;;;;;10.10;8.02;;;21.50;73.00;;;;;;5065989;28;20464;-61
2021/09/08 00:07:47;;;;;;;8.43;7.53;;;21.50;73.00;;;;;;5081372;28;20035;-61
2021/09/08 00:10:12;;;;;;;9.25;8.20;;;21.50;73.00;;;;;;5083064;28;20074;-61
2021/09/08 00:12:38;;;;;;;9.95;8.20;;;21.50;73.10;;;;;;5081253;28;20039;-60
2021/09/08 00:15:05;;;;;;;8.48;7.50;;;21.40;73.00;;;;;;5064508;28;20062;-61
2021/09/08 00:17:31;;;;;;;14.57;8.10;;;21.40;73.10;;;;;;5064108;28;20036;-61
2021/09/08 00:19:56;;;;;;;13.02;8.00;;;21.40;73.10;;;;;;5064525;28;20043;-61
2021/09/08 00:22:22;;;;;;;11.27;7.85;;;21.40;73.10;;;;;;5083156;28;20036;-61
2021/09/08 00:24:47;;;;;;;10.68;7.82;;;21.40;73.20;;;;;;5082617;28;20082;-61
2021/09/08 00:27:13;;;;;;;11.98;8.27;;;21.30;73.10;;;;;;5081596;28;20028;-61
2021/09/08 00:29:38;;;;;;;11.32;8.05;;;21.30;73.50;;;;;;5083950;28;20032;-61
2021/09/08 00:32:04;;;;;;;8.80;7.63;;;21.30;73.30;;;;;;5080538;28;20415;-61
2021/09/08 00:34:30;;;;;;;11.70;7.88;;;21.20;73.30;;;;;;5065352;28;20483;-61
2021/09/08 00:36:56;;;;;;;11.15;7.85;;;21.20;73.40;;;;;;5082268;28;20082;-60
2021/09/08 00:39:21;;;;;;;8.98;7.88;;;21.20;74.10;;;;;;5080753;28;20454;-60
2021/09/08 00:41:47;;;;;;;8.73;7.03;;;21.20;73.50;;;;;;5083608;28;20091;-61
2021/09/08 00:44:14;;;;;;;9.23;7.28;;;21.10;73.50;;;;;;5062895;28;20039;-61
2021/09/08 00:46:40;;;;;;;10.98;7.43;;;21.10;73.50;;;;;;5083693;28;20680;-61
2021/09/08 00:49:06;;;;;;;10.63;7.15;;;21.10;73.60;;;;;;5083807;28;20059;-61
2021/09/08 00:51:32;;;;;;;11.55;7.57;;;21.10;74.40;;;;;;5065072;28;20039;-61
2021/09/08 00:53:58;;;;;;;8.35;7.55;;;21.00;73.70;;;;;;5081634;28;20020;-61
2021/09/08 00:56:24;;;;;;;8.18;7.38;;;21.10;73.70;;;;;;5084202;28;21226;-61
2021/09/08 00:58:50;;;;;;;10.60;7.68;;;21.00;73.70;;;;;;5081994;28;20759;-60
2021/09/08 01:01:15;;;;;;;11.85;7.22;;;21.00;73.80;;;;;;5082773;28;20086;-61
2021/09/08 01:03:41;;;;;;;8.35;7.15;;;21.00;73.90;;;;;;5062021;28;20059;-61
2021/09/08 01:06:06;;;;;;;10.13;8.65;;;21.00;73.80;;;;;;5083063;28;20266;-61
2021/09/08 01:08:32;;;;;;;10.02;7.63;;;21.00;73.80;;;;;;5060089;28;20043;-60
2021/09/08 01:10:57;;;;;;;9.63;8.13;;;21.00;73.80;;;;;;5048363;28;20102;-60
2021/09/08 01:13:23;;;;;;;9.05;7.25;;;21.00;73.90;;;;;;5044194;28;20086;-61
2021/09/08 01:16:01;;;;;;;10.00;7.55;;;20.90;73.90;;;;;;5063383;28;20051;-61
2021/09/08 01:18:26;;;;;;;8.48;7.60;;;20.90;73.90;;;;;;5047893;28;20375;-61
2021/09/08 01:20:52;;;;;;;16.10;8.35;;;20.90;74.00;;;;;;5045815;28;20020;-61
2021/09/08 01:23:17;;;;;;;9.13;7.93;;;20.90;73.90;;;;;;5060254;28;20036;-61
2021/09/08 01:25:43;;;;;;;8.88;7.85;;;20.80;73.90;;;;;;5032648;28;20032;-61
2021/09/08 01:28:08;;;;;;;8.38;7.47;;;20.80;74.00;;;;;;5068386;28;20036;-61
2021/09/08 01:30:34;;;;;;;8.90;7.70;;;20.80;74.00;;;;;;5049594;28;20024;-61
2021/09/08 01:33:01;;;;;;;11.10;7.80;;;20.80;74.00;;;;;;5032329;28;20159;-61
2021/09/08 01:35:26;;;;;;;8.80;7.97;;;20.80;74.10;;;;;;5053156;28;20040;-61
2021/09/08 01:37:52;;;;;;;8.40;7.47;;;20.80;74.20;;;;;;5032590;28;20028;-61
2021/09/08 01:40:18;;;;;;;12.85;7.80;;;20.70;74.10;;;;;;5044527;28;20494;-61
2021/09/08 01:42:44;;;;;;;8.48;7.63;;;20.70;74.10;;;;;;5037940;28;20553;-61
2021/09/08 01:45:17;;;;;;;7.93;7.13;;;20.60;74.20;;;;;;5066235;28;20024;-60
2021/09/08 01:47:43;;;;;;;8.80;7.22;;;20.60;74.30;;;;;;5050834;28;20036;-61
2021/09/08 01:50:08;;;;;;;8.38;7.57;;;20.60;74.40;;;;;;5067308;28;20388;-61
2021/09/08 01:52:34;;;;;;;9.13;7.68;;;20.60;74.40;;;;;;5051826;28;20382;-62
2021/09/08 01:55:00;;;;;;;10.25;7.63;;;20.50;74.40;;;;;;5063207;28;21506;-61
2021/09/08 01:57:25;;;;;;;7.93;7.10;;;20.50;74.40;;;;;;5070468;28;20033;-62
2021/09/08 01:59:51;;;;;;;11.35;7.80;;;20.50;74.50;;;;;;5054860;28;20385;-61
2021/09/08 02:02:16;;;;;;;9.75;7.65;;;20.50;74.60;;;;;;5073044;28;20453;-61
2021/09/08 02:04:42;;;;;;;10.10;7.70;;;20.40;74.60;;;;;;5064471;28;20086;-61
2021/09/08 02:07:08;;;;;;;9.90;7.68;;;20.40;74.60;;;;;;5070359;28;20105;-61
2021/09/08 02:09:33;;;;;;;8.93;6.93;;;20.40;74.70;;;;;;5067866;28;20028;-61
2021/09/08 02:11:59;;;;;;;9.13;7.30;;;20.40;74.80;;;;;;5049226;28;20048;-61
2021/09/08 02:14:24;;;;;;;8.23;7.35;;;20.40;74.80;;;;;;5067201;28;20052;-62
2021/09/08 02:16:50;;;;;;;9.73;8.10;;;20.40;74.90;;;;;;5077770;28;21415;-61
2021/09/08 02:19:15;;;;;;;8.20;7.40;;;20.40;74.90;;;;;;5066046;28;20512;-61
2021/09/08 02:21:41;;;;;;;10.60;7.65;;;20.30;74.90;;;;;;5063801;28;20086;-61
2021/09/08 02:24:06;;;;;;;12.57;7.95;;;20.30;75.00;;;;;;5069500;28;20551;-61
2021/09/08 02:26:32;;;;;;;11.38;6.78;;;20.40;75.00;;;;;;5046007;28;20048;-61
2021/09/08 02:28:57;;;;;;;15.48;8.32;;;20.30;75.10;;;;;;5014487;28;20025;-61
2021/09/08 02:31:23;;;;;;;12.55;7.93;;;20.30;75.10;;;;;;5049204;28;20035;-61
2021/09/08 02:33:49;;;;;;;10.25;7.53;;;20.30;75.10;;;;;;5068272;28;20529;-60
2021/09/08 02:36:14;;;;;;;12.35;8.15;;;20.20;75.10;;;;;;5053177;28;20114;-61
2021/09/08 02:38:40;;;;;;;9.18;7.72;;;20.30;75.20;;;;;;5043345;28;20109;-60
2021/09/08 02:41:08;;;;;;;10.38;8.07;;;20.20;75.20;;;;;;5045190;28;20040;-61
2021/09/08 02:43:34;;;;;;;11.38;8.65;;;20.20;75.20;;;;;;5065409;28;20124;-61
2021/09/08 02:46:02;;;;;;;11.82;7.97;;;20.20;75.30;;;;;;5076300;28;20040;-61
2021/09/08 02:48:29;;;;;;;10.55;8.38;;;20.20;75.30;;;;;;5031248;28;20047;-61
2021/09/08 02:50:55;;;;;;;13.07;8.20;;;20.20;75.30;;;;;;5050859;28;20420;-61
2021/09/08 02:53:21;;;;;;;9.70;8.50;;;20.20;75.40;;;;;;5045226;28;20028;-61
2021/09/08 02:55:46;;;;;;;11.07;8.55;;;20.20;75.30;;;;;;5053091;28;20037;-61
2021/09/08 02:58:12;;;;;;;10.38;7.50;;;20.10;75.30;;;;;;5068155;28;20395;-61
2021/09/08 03:00:37;;;;;;;9.48;8.07;;;20.10;75.40;;;;;;5064922;28;20107;-61
2021/09/08 03:03:03;;;;;;;9.65;8.25;;;20.10;75.50;;;;;;5075423;28;20679;-60
2021/09/08 03:05:28;;;;;;;8.90;7.88;;;20.10;75.50;;;;;;5045894;28;20048;-60
2021/09/08 03:07:54;;;;;;;10.18;7.68;;;20.10;75.60;;;;;;5050216;28;20280;-60
2021/09/08 03:10:19;;;;;;;9.32;8.00;;;20.10;75.60;;;;;;5065855;28;20043;-61
2021/09/08 03:12:45;;;;;;;11.00;8.52;;;20.10;75.60;;;;;;5029840;28;20067;-61
2021/09/08 03:15:11;;;;;;;9.20;8.27;;;20.00;75.70;;;;;;5065702;28;20027;-60
2021/09/08 03:17:36;;;;;;;11.45;8.00;;;20.00;75.70;;;;;;5067526;28;20060;-61
2021/09/08 03:20:02;;;;;;;11.35;7.95;;;20.00;75.80;;;;;;5069626;28;20117;-61
2021/09/08 03:22:27;;;;;;;10.50;8.23;;;20.00;75.90;;;;;;5050606;28;20040;-61
2021/09/08 03:24:53;;;;;;;12.40;7.85;;;19.90;75.90;;;;;;5053265;28;20055;-60
2021/09/08 03:27:18;;;;;;;15.55;8.82;;;19.90;76.00;;;;;;5050998;28;20044;-60
2021/09/08 03:29:44;;;;;;;21.23;10.00;;;19.80;76.00;;;;;;5047450;28;20049;-61
2021/09/08 03:32:09;;;;;;;60.95;11.30;;;19.80;76.10;;;;;;5051580;28;20036;-60
2021/09/08 03:34:35;;;;;;;51.92;11.45;;;19.80;76.20;;;;;;5059304;28;20032;-60
2021/09/08 03:37:00;;;;;;;47.88;11.10;;;19.80;76.20;;;;;;5060974;28;20028;-61
2021/09/08 03:39:26;;;;;;;51.15;11.35;;;19.80;76.20;;;;;;5044132;28;20083;-60
2021/09/08 03:41:51;;;;;;;60.13;11.65;;;19.80;76.20;;;;;;5061784;28;20071;-60
2021/09/08 03:44:17;;;;;;;38.92;10.95;;;19.80;76.30;;;;;;5066202;28;20074;-61
2021/09/08 03:46:42;;;;;;;66.28;11.85;;;19.70;76.30;;;;;;5063812;28;20580;-61
2021/09/08 03:49:08;;;;;;;53.70;10.45;;;19.70;76.40;;;;;;5062920;28;20484;-61
2021/09/08 03:51:33;;;;;;;50.17;10.55;;;19.70;76.50;;;;;;5064615;28;20037;-60
2021/09/08 03:53:59;;;;;;;45.75;10.18;;;19.60;76.50;;;;;;5067120;28;20040;-60
2021/09/08 03:56:25;;;;;;;35.50;10.95;;;19.60;76.60;;;;;;5064770;28;20034;-60
2021/09/08 03:58:54;;;;;;;54.55;10.93;;;19.60;76.60;;;;;;5047272;28;20032;-61
2021/09/08 04:01:19;;;;;;;42.75;11.77;;;19.60;76.60;;;;;;5061930;28;20107;-61
2021/09/08 04:03:48;;;;;;;40.50;10.02;;;19.50;76.60;;;;;;5048587;28;20153;-61
2021/09/08 04:06:14;;;;;;;59.40;12.65;;;19.60;76.70;;;;;;5069985;28;20033;-61
2021/09/08 04:08:40;;;;;;;150.52;18.08;;;19.50;77.30;;;;;;5034141;28;20526;-60
2021/09/08 04:11:05;;;;;;;144.05;17.67;;;19.60;76.80;;;;;;5062728;28;20036;-61
2021/09/08 04:13:31;;;;;;;64.05;12.25;;;19.50;76.70;;;;;;5062350;28;20498;-61
2021/09/08 04:15:56;;;;;;;66.05;11.60;;;19.50;76.80;;;;;;5063720;28;20442;-60
2021/09/08 04:18:22;;;;;;;62.58;12.82;;;19.50;76.90;;;;;;5061135;28;20084;-61
2021/09/08 04:20:47;;;;;;;76.43;11.82;;;19.50;77.00;;;;;;5051087;28;20107;-60
2021/09/08 04:23:13;;;;;;;62.15;12.18;;;19.50;77.20;;;;;;5049112;28;20527;-61
2021/09/08 04:25:39;;;;;;;58.08;12.00;;;19.50;77.20;;;;;;5058570;28;20039;-61
2021/09/08 04:28:05;;;;;;;53.50;10.70;;;19.40;77.30;;;;;;5061268;28;20028;-60
2021/09/08 04:30:30;;;;;;;41.38;11.63;;;19.40;77.30;;;;;;5067582;28;20325;-61
2021/09/08 04:32:56;;;;;;;48.08;11.77;;;19.40;77.40;;;;;;5070237;28;20056;-60
2021/09/08 04:35:21;;;;;;;95.68;13.43;;;19.40;77.40;;;;;;5073991;28;20093;-60
2021/09/08 04:37:47;;;;;;;98.05;13.82;;;19.40;77.50;;;;;;5070584;28;20147;-61
2021/09/08 04:40:13;;;;;;;91.75;13.10;;;19.30;77.50;;;;;;5062690;28;20100;-61
2021/09/08 04:42:38;;;;;;;61.58;12.20;;;19.30;77.60;;;;;;5056920;28;20024;-60
2021/09/08 04:45:04;;;;;;;252.43;25.33;;;19.30;77.70;;;;;;5071675;28;20103;-60
2021/09/08 04:47:30;;;;;;;76.68;13.52;;;19.30;77.90;;;;;;5067616;28;20067;-61
2021/09/08 04:49:56;;;;;;;62.78;12.30;;;19.30;77.90;;;;;;5052099;28;20110;-61
2021/09/08 04:52:21;;;;;;;68.22;12.75;;;19.30;77.90;;;;;;5070646;28;20476;-61
2021/09/08 04:54:47;;;;;;;82.07;13.07;;;19.20;78.00;;;;;;5059194;28;20032;-61
2021/09/08 04:57:12;;;;;;;50.85;11.93;;;19.20;78.10;;;;;;5069043;28;20054;-61
2021/09/08 04:59:38;;;;;;;48.85;12.10;;;19.20;78.10;;;;;;5069280;28;20392;-61
2021/09/08 05:02:03;;;;;;;57.50;11.75;;;19.20;78.10;;;;;;5067205;28;20067;-61
2021/09/08 05:04:28;;;;;;;49.95;11.18;;;19.20;78.20;;;;;;5065938;28;20480;-61
2021/09/08 05:06:54;;;;;;;54.00;11.73;;;19.10;78.20;;;;;;5070886;28;20040;-61
2021/09/08 05:09:19;;;;;;;50.83;11.15;;;19.10;78.20;;;;;;5059454;28;20048;-61
2021/09/08 05:11:45;;;;;;;39.88;10.32;;;19.10;78.20;;;;;;5058645;28;20097;-61
2021/09/08 05:14:11;;;;;;;54.65;10.15;;;19.10;78.20;;;;;;5063326;28;20435;-61
2021/09/08 05:16:36;;;;;;;53.13;11.43;;;19.10;78.10;;;;;;5043398;28;20024;-61
2021/09/08 05:19:02;;;;;;;61.83;11.38;;;19.10;78.10;;;;;;5053748;28;20521;-61
2021/09/08 05:21:27;;;;;;;35.42;9.95;;;19.10;78.20;;;;;;5065384;28;20151;-61
2021/09/08 05:23:53;;;;;;;41.00;10.02;;;19.00;78.20;;;;;;5056071;28;20054;-60
2021/09/08 05:26:19;;;;;;;36.40;10.55;;;19.00;78.20;;;;;;5051244;28;20040;-61
2021/09/08 05:28:44;;;;;;;43.22;10.35;;;19.00;78.30;;;;;;5064275;28;20025;-59
2021/09/08 05:31:10;;;;;;;33.38;10.15;;;19.00;78.30;;;;;;5064153;28;20402;-60
2021/09/08 05:33:35;;;;;;;36.33;10.18;;;18.90;78.30;;;;;;5051251;28;20068;-61
2021/09/08 05:36:01;;;;;;;24.55;9.50;;;18.90;78.40;;;;;;5073675;28;20495;-61
2021/09/08 05:38:26;;;;;;;16.50;9.13;;;18.90;78.40;;;;;;5037979;28;20033;-61
2021/09/08 05:40:52;;;;;;;32.58;10.70;;;18.90;78.40;;;;;;5070964;28;20066;-61
2021/09/08 05:43:17;;;;;;;27.85;9.25;;;18.90;78.70;;;;;;5055332;28;20040;-61
2021/09/08 05:45:43;;;;;;;30.83;9.30;;;18.90;78.40;;;;;;5053962;28;20068;-61
2021/09/08 05:48:09;;;;;;;25.38;9.80;;;18.90;78.50;;;;;;5067001;28;20031;-61
2021/09/08 05:50:35;;;;;;;33.38;9.98;;;18.90;78.40;;;;;;5058199;28;20059;-60
2021/09/08 05:53:03;;;;;;;19.35;9.18;;;18.80;78.50;;;;;;5068211;28;20068;-61
2021/09/08 05:55:31;;;;;;;36.85;9.85;;;18.80;78.50;;;;;;5068050;28;20071;-61
2021/09/08 05:57:57;;;;;;;31.35;10.25;;;18.80;78.50;;;;;;5059107;28;20062;-61
2021/09/08 06:00:22;;;;;;;18.98;9.73;;;18.80;78.50;;;;;;5062896;28;20025;-60
2021/09/08 06:02:48;;;;;;;25.00;9.48;;;18.80;78.80;;;;;;5066741;28;20130;-61
2021/09/08 06:05:13;;;;;;;20.98;9.63;;;18.80;78.60;;;;;;5062802;28;20024;-61
2021/09/08 06:07:39;;;;;;;22.75;9.65;;;18.80;78.60;;;;;;5068890;28;20029;-61
2021/09/08 06:10:05;;;;;;;22.33;9.93;;;18.70;78.60;;;;;;5075084;28;20666;-61
2021/09/08 06:12:31;;;;;;;23.65;9.40;;;18.80;78.60;;;;;;5037029;28;20040;-61
2021/09/08 06:14:56;;;;;;;21.10;9.57;;;18.80;78.70;;;;;;5058704;28;20024;-61
2021/09/08 06:17:22;;;;;;;22.25;10.07;;;18.70;78.70;;;;;;5053419;28;20464;-61
2021/09/08 06:19:47;;;;;;;20.77;9.70;;;18.70;78.70;;;;;;5065774;28;20459;-61
2021/09/08 06:22:13;;;;;;;21.85;9.52;;;18.70;78.90;;;;;;5052272;28;20411;-61
2021/09/08 06:24:38;;;;;;;24.80;10.20;;;18.70;78.90;;;;;;5049376;28;20284;-61
2021/09/08 06:27:04;;;;;;;22.08;9.90;;;18.80;79.00;;;;;;5062919;28;20071;-61
2021/09/08 06:29:29;;;;;;;18.98;9.52;;;18.70;79.10;;;;;;5067275;28;20020;-61
2021/09/08 06:31:55;;;;;;;23.00;8.70;;;18.70;79.10;;;;;;5070270;28;20045;-61
2021/09/08 06:34:20;;;;;;;21.73;9.13;;;18.70;79.10;;;;;;5045388;28;20024;-61
2021/09/08 06:36:46;;;;;;;27.30;9.27;;;18.70;79.10;;;;;;5053756;28;20054;-61
2021/09/08 06:39:11;;;;;;;24.42;9.60;;;18.70;79.30;;;;;;5069607;28;20036;-61
2021/09/08 06:41:37;;;;;;;20.67;9.25;;;18.80;79.30;;;;;;5065246;28;20039;-61
2021/09/08 06:44:03;;;;;;;25.80;9.48;;;18.70;79.20;;;;;;5072356;28;20065;-61
2021/09/08 06:46:28;;;;;;;28.58;9.75;;;18.80;79.20;;;;;;5053102;28;20037;-61
2021/09/08 06:48:54;;;;;;;25.55;11.18;;;18.80;79.20;;;;;;5072100;28;20045;-61
2021/09/08 06:51:20;;;;;;;26.60;9.77;;;18.70;79.40;;;;;;5070763;28;20032;-60
2021/09/08 06:53:46;;;;;;;28.60;11.35;;;18.80;79.40;;;;;;5071943;28;20066;-61
2021/09/08 06:56:11;;;;;;;24.70;10.48;;;18.70;79.40;;;;;;5069728;28;20400;-60
2021/09/08 06:58:37;;;;;;;29.00;10.10;;;18.80;79.50;;;;;;5070233;28;20629;-61
2021/09/08 07:01:02;;;;;;;22.55;10.07;;;18.80;79.30;;;;;;5065879;28;20464;-61
2021/09/08 07:03:28;;;;;;;26.20;10.93;;;18.80;79.30;;;;;;5054735;28;20037;-60
2021/09/08 07:05:54;;;;;;;36.95;11.88;;;18.80;79.50;;;;;;5045942;28;20664;-61
2021/09/08 07:08:19;;;;;;;28.00;11.88;;;18.80;80.00;;;;;;5048705;28;20722;-61
2021/09/08 07:10:45;;;;;;;29.88;11.88;;;18.80;80.30;;;;;;5065470;28;20099;-61
2021/09/08 07:13:10;;;;;;;27.30;10.95;;;18.70;80.50;;;;;;5047871;28;20048;-61
2021/09/08 07:15:36;;;;;;;36.85;12.05;;;18.70;80.80;;;;;;5066340;28;20028;-61
2021/09/08 07:18:01;;;;;;;32.42;11.38;;;18.70;80.90;;;;;;5048239;28;20039;-60
2021/09/08 07:20:27;;;;;;;33.45;12.45;;;18.70;81.40;;;;;;5068990;28;20099;-61
2021/09/08 07:22:52;;;;;;;23.95;11.95;;;18.70;81.60;;;;;;5052971;28;20033;-60
2021/09/08 07:25:18;;;;;;;34.67;12.23;;;18.60;81.60;;;;;;5064060;28;20039;-61
2021/09/08 07:27:43;;;;;;;28.05;11.27;;;18.60;81.90;;;;;;5063406;28;20595;-61
2021/09/08 07:30:09;;;;;;;33.78;12.15;;;18.60;81.90;;;;;;5065021;28;20055;-60
2021/09/08 07:32:35;;;;;;;22.35;11.18;;;18.60;82.20;;;;;;5065337;28;20077;-61
2021/09/08 07:35:00;;;;;;;31.65;11.45;;;18.60;82.20;;;;;;5067024;28;20031;-61
2021/09/08 07:37:26;;;;;;;33.88;11.80;;;18.60;82.30;;;;;;5064512;28;20387;-61
2021/09/08 07:39:52;;;;;;;29.50;11.63;;;18.60;82.30;;;;;;5064228;28;20507;-61
2021/09/08 07:42:17;;;;;;;26.50;11.05;;;18.60;82.40;;;;;;5047341;28;20035;-61
2021/09/08 07:44:43;;;;;;;36.10;12.70;;;18.60;82.40;;;;;;5083061;28;20035;-61
2021/09/08 07:47:09;;;;;;;29.05;11.65;;;18.60;82.40;;;;;;5082317;28;20040;-61
2021/09/08 07:49:35;;;;;;;31.02;12.30;;;18.60;82.90;;;;;;5080700;28;20027;-61
2021/09/08 07:52:00;;;;;;;27.52;12.77;;;18.60;82.80;;;;;;5063205;28;20113;-60
2021/09/08 07:54:26;;;;;;;26.00;12.30;;;18.70;82.90;;;;;;5063139;28;20097;-60
2021/09/08 07:56:52;;;;;;;27.70;12.25;;;18.70;82.90;;;;;;5064110;28;20035;-61
2021/09/08 07:59:18;;;;;;;41.03;12.57;;;18.70;82.80;;;;;;5065800;28;20021;-60
2021/09/08 08:01:43;;;;;;;27.83;12.13;;;18.70;83.10;;;;;;5081553;28;20078;-61
2021/09/08 08:04:10;;;;;;;36.63;12.27;;;18.70;83.00;;;;;;5063890;28;20115;-61
2021/09/08 08:06:37;;;;;;;30.10;12.02;;;18.70;83.20;;;;;;5063231;28;20036;-60
2021/09/08 08:09:03;;;;;;;43.83;14.38;;;18.80;83.10;;;;;;5048077;28;20495;-61
2021/09/08 08:11:28;;;;;;;50.50;14.10;;;18.70;83.00;;;;;;5081235;28;20388;-60
2021/09/08 08:13:54;;;;;;;28.63;12.13;;;18.80;83.50;;;;;;5064180;28;20024;-61
2021/09/08 08:16:19;;;;;;;38.80;11.73;;;18.80;84.00;;;;;;5082578;28;20028;-61
2021/09/08 08:18:45;;;;;;;33.92;12.52;;;18.80;84.00;;;;;;5081521;28;20086;-61
2021/09/08 08:21:10;;;;;;;35.33;12.02;;;18.80;83.50;;;;;;5063451;28;20082;-61
2021/09/08 08:23:36;;;;;;;48.00;13.18;;;18.80;83.50;;;;;;5073216;28;20456;-61
2021/09/08 08:26:01;;;;;;;34.45;11.30;;;18.80;84.00;;;;;;5063201;28;20021;-60
2021/09/08 08:28:27;;;;;;;40.10;12.43;;;18.80;84.00;;;;;;5059960;28;20190;-61
2021/09/08 08:30:53;;;;;;;52.65;14.02;;;18.80;84.40;;;;;;5061262;28;20036;-61
2021/09/08 08:33:18;;;;;;;56.65;15.05;;;18.90;84.40;;;;;;5041913;28;20062;-61
2021/09/08 08:35:44;;;;;;;65.50;14.85;;;18.90;84.70;;;;;;5043893;28;20440;-62
2021/09/08 08:38:09;;;;;;;60.40;15.20;;;19.00;84.70;;;;;;5060585;28;20422;-61
2021/09/08 08:40:35;;;;;;;51.15;13.45;;;19.00;84.90;;;;;;5059479;28;20044;-61
2021/09/08 08:43:01;;;;;;;59.10;13.80;;;19.00;84.70;;;;;;5062546;28;20458;-61
2021/09/08 08:45:27;;;;;;;68.28;15.13;;;19.00;83.90;;;;;;5041941;28;20040;-61
2021/09/08 08:47:53;;;;;;;57.63;14.45;;;19.00;84.50;;;;;;5042372;28;20386;-61
2021/09/08 08:50:18;;;;;;;52.78;13.88;;;19.10;84.70;;;;;;5043494;28;20464;-61
2021/09/08 08:52:45;;;;;;;60.78;14.95;;;19.10;85.00;;;;;;5044765;28;20376;-61
2021/09/08 08:55:11;;;;;;;67.45;13.02;;;19.10;85.10;;;;;;5043188;28;21458;-61
2021/09/08 08:57:36;;;;;;;52.35;14.20;;;19.10;85.00;;;;;;5042830;28;20029;-61
2021/09/08 09:00:03;;;;;;;58.75;12.70;;;19.10;84.80;;;;;;5041218;28;20040;-60
2021/09/08 09:02:30;;;;;;;61.90;14.40;;;19.20;84.80;;;;;;5061411;28;20059;-61
2021/09/08 09:04:57;;;;;;;65.00;13.63;;;19.30;85.00;;;;;;5044202;28;20122;-60
2021/09/08 09:07:33;;;;;;;72.07;15.18;;;19.30;85.00;;;;;;5046180;28;20037;-60
2021/09/08 09:10:02;;;;;;;58.42;14.43;;;19.30;85.00;;;;;;5046046;28;20518;-61
2021/09/08 09:12:33;;;;;;;42.33;14.65;;;19.40;84.90;;;;;;5048467;28;20066;-61
2021/09/08 09:15:00;;;;;;;46.35;14.02;;;19.40;85.10;;;;;;5046268;28;20602;-61
2021/09/08 09:17:27;;;;;;;55.75;13.60;;;19.40;84.90;;;;;;5047429;28;20119;-61
2021/09/08 09:19:52;;;;;;;41.53;11.98;;;19.40;85.10;;;;;;5030507;28;20533;-61
2021/09/08 09:22:18;;;;;;;46.55;12.48;;;19.40;84.90;;;;;;5064370;28;20040;-61
2021/09/08 09:24:44;;;;;;;39.03;12.85;;;19.50;85.00;;;;;;5079621;28;20510;-61
2021/09/08 09:27:13;;;;;;;32.42;12.90;;;19.50;84.90;;;;;;5084668;28;20103;-62
2021/09/08 09:29:45;;;;;;;39.28;13.05;;;19.50;84.70;;;;;;5066501;28;20032;-61
2021/09/08 09:32:11;;;;;;;43.97;14.07;;;19.50;84.80;;;;;;5050120;28;20374;-61
2021/09/08 09:34:38;;;;;;;31.75;12.32;;;19.50;84.70;;;;;;5067652;28;20509;-61
2021/09/08 09:37:04;;;;;;;41.30;12.65;;;19.60;84.80;;;;;;5066828;28;20485;-61
2021/09/08 09:39:32;;;;;;;46.33;13.68;;;19.60;84.80;;;;;;5084258;28;20032;-60
2021/09/08 09:41:59;;;;;;;45.33;13.75;;;19.70;84.80;;;;;;5066284;28;20016;-61
2021/09/08 09:44:24;;;;;;;38.97;14.23;;;19.70;85.00;;;;;;5060575;28;20016;-60
2021/09/08 09:46:54;;;;;;;39.95;13.07;;;19.70;84.90;;;;;;5064800;28;20098;-61
2021/09/08 09:49:20;;;;;;;52.13;13.57;;;19.70;84.90;;;;;;5066251;28;20497;-61
2021/09/08 09:51:45;;;;;;;38.35;11.75;;;19.80;84.90;;;;;;5082567;28;20331;-60
2021/09/08 09:54:11;;;;;;;50.42;13.02;;;19.80;84.90;;;;;;5065723;28;20024;-61
2021/09/08 09:56:37;;;;;;;39.30;12.48;;;19.80;84.80;;;;;;5067048;28;20032;-61
2021/09/08 09:59:03;;;;;;;40.47;12.73;;;19.90;84.90;;;;;;5065864;28;20289;-60
2021/09/08 10:01:28;;;;;;;40.15;11.95;;;19.90;84.80;;;;;;5046400;28;20448;-61
2021/09/08 10:03:54;;;;;;;45.67;12.15;;;19.90;84.40;;;;;;5063396;28;20475;-61
2021/09/08 10:06:20;;;;;;;36.85;11.30;;;20.00;84.40;;;;;;5082757;28;20044;-61
2021/09/08 10:08:49;;;;;;;33.53;11.55;;;20.00;84.90;;;;;;5064492;28;20193;-61
2021/09/08 10:11:19;;;;;;;42.92;11.70;;;20.00;84.30;;;;;;5065787;28;20139;-61
2021/09/08 10:13:46;;;;;;;38.55;11.32;;;20.00;84.10;;;;;;5048601;28;20069;-61
2021/09/08 10:16:11;;;;;;;26.05;10.65;;;20.10;84.00;;;;;;5047861;28;20568;-61
2021/09/08 10:18:37;;;;;;;33.80;10.40;;;20.10;83.70;;;;;;5062641;28;20123;-61
2021/09/08 10:21:04;;;;;;;20.40;10.07;;;20.20;83.80;;;;;;5064421;28;20525;-61
2021/09/08 10:23:33;;;;;;;37.30;11.35;;;20.20;83.80;;;;;;5083279;28;20036;-61
2021/09/08 10:25:59;;;;;;;31.55;11.27;;;20.20;83.60;;;;;;5064360;28;20032;-61
2021/09/08 10:28:26;;;;;;;42.15;10.82;;;20.20;83.60;;;;;;5081603;28;20118;-61
2021/09/08 10:30:52;;;;;;;31.00;9.98;;;20.30;83.50;;;;;;5056479;28;20074;-61
2021/09/08 10:33:17;;;;;;;29.63;10.90;;;20.30;83.50;;;;;;5062491;28;20051;-61
2021/09/08 10:35:43;;;;;;;35.88;10.52;;;20.40;83.30;;;;;;5065515;28;20035;-61
2021/09/08 10:38:13;;;;;;;29.13;9.77;;;20.40;83.10;;;;;;5082449;28;20039;-62
2021/09/08 10:40:40;;;;;;;27.20;8.57;;;20.40;82.80;;;;;;5064549;28;20208;-61
2021/09/08 10:43:06;;;;;;;20.05;8.48;;;20.50;82.60;;;;;;5064011;28;20028;-61
2021/09/08 10:45:32;;;;;;;30.10;9.25;;;20.60;82.40;;;;;;5083425;28;20059;-61
2021/09/08 10:48:01;;;;;;;25.70;9.40;;;20.60;82.20;;;;;;5081823;28;20042;-61
2021/09/08 10:50:43;;;;;;;20.33;8.93;;;20.60;81.80;;;;;;5083482;28;20483;-61
2021/09/08 10:53:24;;;;;;;22.15;8.40;;;20.70;81.70;;;;;;5048521;28;20039;-61
2021/09/08 10:55:51;;;;;;;15.43;8.05;;;20.80;81.40;;;;;;5082072;28;20266;-61
2021/09/08 10:58:16;;;;;;;20.50;7.90;;;20.80;81.10;;;;;;5063828;28;20032;-61
2021/09/08 11:00:43;;;;;;;23.17;8.50;;;20.80;80.90;;;;;;5056862;28;20495;-61
2021/09/08 11:03:14;;;;;;;27.35;8.55;;;20.90;80.70;;;;;;5058909;28;20070;-61
2021/09/08 11:05:48;;;;;;;19.00;7.78;;;21.00;80.40;;;;;;5080423;28;20060;-61
2021/09/08 11:08:29;;;;;;;24.45;7.82;;;20.90;80.30;;;;;;5081108;28;20143;-61
2021/09/08 11:11:09;;;;;;;23.65;8.32;;;21.00;80.00;;;;;;5068242;28;20063;-61
2021/09/08 11:13:35;;;;;;;29.63;8.30;;;21.10;79.60;;;;;;5046107;28;20419;-61
2021/09/08 11:16:01;;;;;;;25.55;9.25;;;21.20;79.50;;;;;;5038209;28;20499;-61
2021/09/08 11:18:36;;;;;;;22.65;7.82;;;21.30;79.20;;;;;;5058568;28;20120;-61
2021/09/08 11:21:05;;;;;;;25.05;7.53;;;21.30;79.00;;;;;;5079026;28;20471;-61
2021/09/08 11:23:31;;;;;;;15.07;7.60;;;21.30;78.80;;;;;;5073263;28;20052;-61
2021/09/08 11:26:07;;;;;;;20.02;7.55;;;21.40;78.50;;;;;;5039305;28;20056;-61
2021/09/08 11:28:33;;;;;;;18.25;8.45;;;21.40;78.20;;;;;;5060331;28;20548;-61
2021/09/08 11:30:58;;;;;;;22.88;8.13;;;21.50;78.10;;;;;;5063429;28;20135;-61
2021/09/08 11:33:33;;;;;;;25.92;8.00;;;21.60;77.60;;;;;;5042590;28;20017;-61
2021/09/08 11:36:00;;;;;;;21.50;7.22;;;21.70;77.40;;;;;;5040358;28;20055;-61
2021/09/08 11:38:30;;;;;;;33.70;8.15;;;21.70;77.20;;;;;;5023725;28;20036;-61
2021/09/08 11:41:05;;;;;;;21.08;7.45;;;21.70;77.20;;;;;;5040121;28;20538;-62
2021/09/08 11:43:32;;;;;;;22.58;7.53;;;21.80;77.00;;;;;;5041431;28;20036;-61
2021/09/08 11:45:57;;;;;;;17.15;6.88;;;21.90;76.60;;;;;;5043449;28;20040;-61
2021/09/08 11:48:30;;;;;;;26.92;8.68;;;22.00;76.30;;;;;;5042221;28;20042;-61
2021/09/08 11:51:05;;;;;;;32.97;8.45;;;22.10;76.10;;;;;;5075536;28;20151;-61
2021/09/08 11:53:32;;;;;;;23.00;7.85;;;22.10;75.90;;;;;;5074143;28;20031;-61
2021/09/08 11:56:24;;;;;;;54.15;10.13;;;22.20;75.50;;;;;;5060463;28;20021;-61
2021/09/08 11:58:51;;;;;;;37.92;7.93;;;22.30;75.40;;;;;;5038289;28;20057;-61
2021/09/08 12:01:16;;;;;;;25.58;7.97;;;22.30;75.00;;;;;;5059394;28;20679;-61
2021/09/08 12:03:43;;;;;;;20.35;8.02;;;22.40;74.80;;;;;;5058827;28;20055;-61
2021/09/08 12:06:12;;;;;;;30.45;8.32;;;22.50;74.70;;;;;;5065143;28;20033;-61
2021/09/08 12:08:55;;;;;;;38.13;8.98;;;22.50;74.50;;;;;;5039962;28;20035;-61
2021/09/08 12:11:31;;;;;;;38.00;8.40;;;22.60;74.50;;;;;;5042851;28;20083;-61
2021/09/08 12:13:56;;;;;;;;;;;22.60;74.50;;;;;;5040048;28;20028;-61
2021/09/08 12:16:35;;;;;;;;;;;22.70;74.40;;;;;;5052718;28;21252;-61
2021/09/08 12:19:20;;;;;;;50.30;8.93;;;22.80;74.20;;;;;;5040549;28;19927;-61
2021/09/08 12:21:46;;;;;;;46.22;9.63;;;22.90;74.00;;;;;;5053967;28;20104;-61
2021/09/08 12:24:19;;;;;;;36.08;8.90;;;22.90;73.60;;;;;;5085058;28;20082;-61
2021/09/08 12:26:45;;;;;;;53.60;9.57;;;23.00;73.60;;;;;;5056112;28;20188;-61
2021/09/08 12:29:10;;;;;;;63.75;11.18;;;23.10;73.30;;;;;;5076912;28;20054;-61